Leetsdale, Pennsylvania
Current Conditions -  °F | °C
As of 2:51 PM on Friday 28 Nov 2014 (Local Time) from KPIT Reporting Station
Broken Clouds Broken Clouds  
Wind Chill: 19°   Ceiling: 14000
Heat Index: 28°   Visibility: 10mi
Dew Point: 15°   Wind: 9mph
Humidity: 58%   Direction: 260°W
Pressure: 30.24"   Gusts: NA
Location:  40.56°N, 80.21°W
Report Text: KPIT 281951Z 26008KT 10SM SCT034 BKN140 M02/M09 A3024 RMK AO2 SLP262 T10221094
Loading
Personal Weather Stations






























Interactive Weather Map New forecast layout! Learn more

10-Day Weather Forecast

Advertisements
Track Severe Weather on mobile